Time;durP1;ratioP1;P1;durP2;ratioP2;P2;SDS_P1;SDS_P2;PMS_P1;PMS_P2;Temp;Humidity;BMP_temperature;BMP_pressure;BME280_temperature;BME280_humidity;BME280_pressure;Samples;Min_cycle;Max_cycle;Signal;HPM_P1;HPM_P2
2021/07/12 00:02:20;;;;;;;7.37;6.70;;;;;;;25.30;52.28;99760.55;1674487;85;21109;-71
2021/07/12 00:04:46;;;;;;;6.80;6.10;;;;;;;25.32;52.34;99758.26;1654707;86;21064;-70
2021/07/12 00:07:14;;;;;;;6.87;5.83;;;;;;;25.34;52.26;99755.95;1659945;85;21091;-69
2021/07/12 00:09:42;;;;;;;11.60;6.05;;;;;;;25.36;52.27;99750.34;1682509;85;20973;-70
2021/07/12 00:12:08;;;;;;;6.45;5.90;;;;;;;25.38;52.34;99754.09;1681457;83;21084;-70
2021/07/12 00:14:36;;;;;;;6.00;5.40;;;;;;;25.39;52.42;99758.47;1682132;85;21067;-69
2021/07/12 00:17:04;;;;;;;7.20;6.50;;;;;;;25.39;52.51;99753.77;1673885;85;21000;-71
2021/07/12 00:19:31;;;;;;;7.70;7.03;;;;;;;25.39;52.51;99757.89;1681790;83;21113;-71
2021/07/12 00:21:57;;;;;;;6.37;5.87;;;;;;;25.39;52.96;99761.22;1681304;85;21016;-71
2021/07/12 00:24:24;;;;;;;7.12;6.47;;;;;;;25.35;52.87;99754.80;1654743;86;21067;-71
2021/07/12 00:26:50;;;;;;;8.20;7.00;;;;;;;25.32;52.70;99754.12;1629068;86;21132;-72
2021/07/12 00:29:17;;;;;;;8.70;7.95;;;;;;;25.29;52.99;99765.25;1635513;85;21143;-71
2021/07/12 00:31:45;;;;;;;8.23;7.53;;;;;;;25.22;53.36;99755.97;1650185;85;21592;-78
2021/07/12 00:34:12;;;;;;;8.38;6.78;;;;;;;25.18;53.79;99753.09;1668504;85;21693;-72
2021/07/12 00:36:40;;;;;;;7.83;6.97;;;;;;;25.09;54.10;99751.84;1669468;85;21092;-72
2021/07/12 00:39:07;;;;;;;7.92;7.15;;;;;;;25.05;54.00;99752.88;1666687;85;21077;-72
2021/07/12 00:41:37;;;;;;;8.25;7.55;;;;;;;24.98;54.25;99749.34;1633103;84;21027;-73
2021/07/12 00:44:05;;;;;;;9.93;7.60;;;;;;;24.91;54.55;99746.34;1638922;86;21293;-73
2021/07/12 00:46:31;;;;;;;7.53;6.92;;;;;;;24.89;54.68;99745.87;1637400;86;21078;-72
2021/07/12 00:49:00;;;;;;;8.15;7.40;;;;;;;24.83;54.92;99749.98;1640948;86;21089;-73
2021/07/12 00:51:27;;;;;;;8.45;7.70;;;;;;;24.78;54.95;99748.83;1628791;86;20989;-71
2021/07/12 00:53:53;;;;;;;11.53;7.90;;;;;;;24.72;55.03;99746.06;1629988;86;21055;-73
2021/07/12 00:56:22;;;;;;;9.33;8.48;;;;;;;24.63;55.36;99744.80;1603561;88;21046;-72
2021/07/12 00:58:48;;;;;;;9.18;8.25;;;;;;;24.55;55.70;99748.47;1639555;86;21070;-73
2021/07/12 01:01:16;;;;;;;8.53;7.72;;;;;;;24.46;56.03;99746.36;1630481;86;21249;-72
2021/07/12 01:03:42;;;;;;;8.78;7.97;;;;;;;24.39;56.31;99740.63;1654958;86;21014;-72
2021/07/12 01:06:11;;;;;;;8.33;7.53;;;;;;;24.32;56.59;99739.80;1655093;86;21535;-71
2021/07/12 01:08:38;;;;;;;8.98;8.13;;;;;;;24.30;56.81;99746.80;1654809;86;21210;-72
2021/07/12 01:11:46;;;;;;;9.23;8.43;;;;;;;24.35;56.63;99740.28;1614920;88;21646;-72
2021/07/12 01:14:43;;;;;;;9.50;8.70;;;;;;;24.30;56.85;99742.11;1625608;86;21578;-73
2021/07/12 01:17:52;;;;;;;11.95;8.85;;;;;;;24.21;57.25;99736.47;1620858;87;21053;-71
2021/07/12 01:20:57;;;;;;;8.98;8.10;;;;;;;24.14;57.34;99734.80;1652974;86;21131;-71
2021/07/12 01:23:55;;;;;;;11.12;8.75;;;;;;;24.16;57.41;99744.36;1614534;86;21110;-73
2021/07/12 01:26:57;;;;;;;9.28;8.25;;;;;;;24.14;57.72;99743.05;1654435;86;21050;-73
2021/07/12 01:30:00;;;;;;;9.20;8.30;;;;;;;24.07;58.02;99740.86;1654581;86;20980;-72
2021/07/12 01:32:41;;;;;;;8.73;7.92;;;;;;;24.07;58.09;99741.44;1649148;86;21026;-73
2021/07/12 01:35:26;;;;;;;9.63;8.70;;;;;;;24.07;58.23;99744.18;1604474;88;21034;-72
2021/07/12 01:38:18;;;;;;;11.40;7.87;;;;;;;24.00;58.43;99744.72;1610553;86;21232;-71
2021/07/12 01:41:01;;;;;;;9.98;8.73;;;;;;;23.97;58.50;99747.34;1651740;86;21015;-72
2021/07/12 01:43:36;;;;;;;8.90;8.10;;;;;;;23.91;58.62;99744.00;1602535;86;21150;-72
2021/07/12 01:46:10;;;;;;;11.25;8.00;;;;;;;23.90;58.46;99745.94;1653370;86;21512;-73
2021/07/12 01:49:14;;;;;;;8.30;7.55;;;;;;;23.92;58.50;99748.36;1638563;86;21057;-72
2021/07/12 01:52:14;;;;;;;8.15;7.05;;;;;;;23.93;58.55;99747.22;1584688;88;21184;-73
2021/07/12 01:55:05;;;;;;;9.33;8.58;;;;;;;23.95;58.42;99743.55;1650016;86;21044;-72
2021/07/12 01:57:37;;;;;;;8.25;7.45;;;;;;;23.99;58.34;99751.91;1641370;86;21088;-72
2021/07/12 02:00:12;;;;;;;7.97;7.17;;;;;;;24.03;58.25;99749.52;1613865;87;21024;-72
2021/07/12 02:02:50;;;;;;;11.70;8.53;;;;;;;24.04;58.30;99747.02;1613606;86;20925;-73
2021/07/12 02:05:21;;;;;;;8.78;7.80;;;;;;;24.06;58.28;99754.36;1601632;88;21082;-73
2021/07/12 02:07:48;;;;;;;10.72;7.90;;;;;;;24.06;58.31;99758.48;1689390;84;20978;-71
2021/07/12 02:10:18;;;;;;;7.20;6.55;;;;;;;24.09;58.27;99763.86;1619063;87;21077;-72
2021/07/12 02:12:49;;;;;;;8.03;7.22;;;;;;;24.09;58.22;99760.55;1638268;86;21005;-72
2021/07/12 02:15:18;;;;;;;8.83;7.92;;;;;;;24.04;58.13;99756.63;1653618;84;21477;-72
2021/07/12 02:17:45;;;;;;;11.50;7.85;;;;;;;24.03;58.22;99758.37;1627232;88;21772;-72
2021/07/12 02:20:14;;;;;;;8.05;7.35;;;;;;;24.03;58.25;99750.13;1671626;85;21065;-71
2021/07/12 02:22:41;;;;;;;7.33;6.53;;;;;;;24.03;58.22;99744.63;1655586;86;21010;-72
2021/07/12 02:25:11;;;;;;;8.15;7.35;;;;;;;24.03;58.16;99739.91;1666984;84;21135;-72
2021/07/12 02:27:37;;;;;;;7.75;6.97;;;;;;;24.07;58.13;99740.86;1657218;85;21061;-72
2021/07/12 02:30:06;;;;;;;7.90;7.10;;;;;;;24.12;57.96;99737.09;1619534;88;21132;-72
2021/07/12 02:32:33;;;;;;;7.80;7.05;;;;;;;24.17;57.71;99732.20;1658362;86;20965;-73
2021/07/12 02:35:00;;;;;;;8.18;7.35;;;;;;;24.24;56.90;99735.21;1658931;85;21055;-72
2021/07/12 02:37:28;;;;;;;9.58;7.55;;;;;;;24.29;56.62;99733.63;1611517;87;21044;-73
2021/07/12 02:39:56;;;;;;;14.60;7.78;;;;;;;24.36;56.40;99737.77;1655133;86;35934;-73
2021/07/12 02:42:23;;;;;;;8.85;7.97;;;;;;;24.40;56.28;99734.00;1627024;87;21088;-72
2021/07/12 02:44:51;;;;;;;8.80;6.55;;;;;;;24.46;56.61;99731.84;1650451;85;22348;-72
2021/07/12 02:47:17;;;;;;;10.88;7.05;;;;;;;24.49;56.10;99720.14;1632143;86;21030;-72
2021/07/12 02:49:45;;;;;;;7.25;6.65;;;;;;;24.57;55.79;99717.85;1628412;87;21114;-72
2021/07/12 02:52:25;;;;;;;8.13;6.67;;;;;;;24.65;55.51;99721.87;1628916;86;21107;-72
2021/07/12 02:54:57;;;;;;;7.72;6.95;;;;;;;24.71;55.03;99716.38;1592316;88;21732;-71
2021/07/12 02:57:24;;;;;;;7.30;6.70;;;;;;;24.79;55.21;99709.17;1635654;86;21042;-72
2021/07/12 02:59:51;;;;;;;6.97;6.37;;;;;;;24.90;54.48;99708.95;1652544;84;21555;-72
2021/07/12 03:02:18;;;;;;;8.33;7.60;;;;;;;25.01;54.74;99717.56;1654460;86;21067;-73
2021/07/12 03:04:45;;;;;;;8.88;7.97;;;;;;;25.00;55.68;99718.13;1621152;87;21084;-73
2021/07/12 03:07:23;;;;;;;13.20;9.55;;;;;;;24.93;55.96;99730.88;1613497;86;21096;-73
2021/07/12 03:09:52;;;;;;;12.75;8.28;;;;;;;24.86;56.48;99724.52;1635152;86;20996;-75
2021/07/12 03:12:37;;;;;;;11.93;9.70;;;;;;;24.79;56.88;99736.69;1627319;85;21036;-75
2021/07/12 03:15:07;;;;;;;9.78;8.85;;;;;;;24.51;58.02;99731.02;1615924;87;21094;-72
2021/07/12 03:17:46;;;;;;;9.95;8.83;;;;;;;24.26;58.80;99719.77;1669856;84;21100;-72
2021/07/12 03:20:14;;;;;;;23.07;10.40;;;;;;;24.18;59.19;99728.31;1652426;86;21226;-72
2021/07/12 03:22:41;;;;;;;10.32;8.25;;;;;;;24.07;59.56;99731.25;1672308;85;21029;-72
2021/07/12 03:25:10;;;;;;;15.72;9.43;;;;;;;23.98;60.29;99728.35;1652495;86;20984;-73
2021/07/12 03:27:38;;;;;;;12.47;10.75;;;;;;;23.87;60.47;99726.58;1675282;84;21041;-73
2021/07/12 03:30:06;;;;;;;11.70;9.55;;;;;;;23.94;60.26;99738.38;1678067;84;21005;-72
2021/07/12 03:32:35;;;;;;;9.55;8.58;;;;;;;23.98;60.47;99737.97;1680241;85;21139;-73
2021/07/12 03:35:04;;;;;;;9.43;7.70;;;;;;;23.98;60.40;99739.34;1633865;85;21557;-72
2021/07/12 03:37:30;;;;;;;12.25;8.53;;;;;;;24.06;60.11;99750.81;1696686;84;21044;-72
2021/07/12 03:39:58;;;;;;;10.50;9.25;;;;;;;24.09;60.00;99750.13;1667746;85;21016;-73
2021/07/12 03:42:25;;;;;;;10.40;8.68;;;;;;;24.09;60.42;99759.17;1639717;86;21142;-73
2021/07/12 03:44:53;;;;;;;10.15;7.80;;;;;;;24.09;60.36;99756.42;1679426;84;21106;-74
2021/07/12 03:47:31;;;;;;;10.20;9.10;;;;;;;24.17;60.17;99767.93;1689436;84;21016;-74
2021/07/12 03:50:11;;;;;;;9.30;8.40;;;;;;;24.21;60.22;99762.58;1639264;86;21061;-72
2021/07/12 03:52:51;;;;;;;11.43;8.50;;;;;;;24.26;60.29;99768.67;1644967;86;21029;-74
2021/07/12 03:55:20;;;;;;;12.75;9.23;;;;;;;24.28;60.59;99758.70;1645968;85;21083;-72
2021/07/12 03:57:47;;;;;;;9.93;8.85;;;;;;;24.27;60.00;99755.70;1653518;84;21138;-73
2021/07/12 04:00:18;;;;;;;10.23;9.33;;;;;;;24.28;59.73;99757.32;1682667;84;21075;-72
2021/07/12 04:02:45;;;;;;;10.43;9.33;;;;;;;24.29;59.67;99751.49;1662885;85;21024;-72
2021/07/12 04:05:12;;;;;;;11.25;9.10;;;;;;;24.31;59.58;99748.41;1653405;85;21078;-73
2021/07/12 04:07:38;;;;;;;12.82;9.98;;;;;;;24.28;59.78;99753.20;1680286;84;21661;-72
2021/07/12 04:10:07;;;;;;;10.75;9.75;;;;;;;24.28;60.32;99751.82;1658254;85;21135;-73
2021/07/12 04:12:34;;;;;;;10.35;9.33;;;;;;;24.29;60.68;99752.06;1658133;85;21020;-73
2021/07/12 04:15:01;;;;;;;12.33;10.60;;;;;;;24.26;60.88;99755.50;1672999;84;21089;-73
2021/07/12 04:17:27;;;;;;;10.32;9.15;;;;;;;24.28;61.00;99753.20;1683799;83;21631;-74
2021/07/12 04:19:53;;;;;;;10.43;9.40;;;;;;;24.28;60.98;99753.20;1678035;84;21567;-73
2021/07/12 04:22:20;;;;;;;10.20;9.20;;;;;;;24.24;61.09;99755.02;1655194;83;21138;-74
2021/07/12 04:24:46;;;;;;;9.13;8.35;;;;;;;24.17;61.44;99750.66;1673484;84;21032;-73
2021/07/12 04:27:12;;;;;;;11.75;10.08;;;;;;;24.10;61.82;99747.62;1693859;84;21050;-73
2021/07/12 04:29:39;;;;;;;11.55;9.28;;;;;;;24.06;61.88;99743.38;1693743;84;21090;-72
2021/07/12 04:32:06;;;;;;;9.70;8.80;;;;;;;24.04;62.05;99742.09;1694469;83;21088;-74
2021/07/12 04:34:32;;;;;;;11.53;9.28;;;;;;;24.07;61.86;99741.44;1673849;84;21015;-74
2021/07/12 04:36:59;;;;;;;10.30;7.83;;;;;;;24.07;61.99;99742.80;1692918;84;20991;-73
2021/07/12 04:39:25;;;;;;;10.05;9.13;;;;;;;24.08;62.02;99743.82;1673910;84;21007;-74
2021/07/12 04:41:53;;;;;;;13.13;8.95;;;;;;;24.08;62.40;99749.31;1693585;84;21086;-73
2021/07/12 04:44:21;;;;;;;13.80;7.97;;;;;;;24.17;62.33;99748.69;1700998;83;21123;-75
2021/07/12 04:46:49;;;;;;;25.85;10.03;;;;;;;24.20;62.20;99745.28;1722374;83;22091;-75
2021/07/12 04:49:16;;;;;;;11.60;9.43;;;;;;;24.25;61.74;99747.81;1701857;83;21046;-73
2021/07/12 04:51:42;;;;;;;9.53;7.90;;;;;;;24.26;61.91;99747.25;1701611;83;21047;-74
2021/07/12 04:54:10;;;;;;;10.82;8.68;;;;;;;24.26;61.96;99746.69;1696922;82;21535;-75
2021/07/12 04:56:37;;;;;;;14.45;9.10;;;;;;;24.27;62.33;99745.52;1693853;84;21110;-74
2021/07/12 04:59:06;;;;;;;10.95;9.15;;;;;;;24.32;62.33;99737.62;1688636;84;21557;-75
2021/07/12 05:01:33;;;;;;;10.13;9.23;;;;;;;24.37;62.15;99737.41;1673271;84;21048;-75
2021/07/12 05:04:03;;;;;;;11.28;9.15;;;;;;;24.42;61.79;99736.38;1672113;83;21018;-75
2021/07/12 05:06:29;;;;;;;10.45;8.78;;;;;;;24.42;61.86;99738.56;1646217;86;21054;-73
2021/07/12 05:08:56;;;;;;;10.18;8.90;;;;;;;24.43;62.02;99742.13;1667497;84;21039;-74
2021/07/12 05:11:24;;;;;;;17.90;9.93;;;;;;;24.45;62.49;99744.78;1647689;86;21079;-73
2021/07/12 05:13:51;;;;;;;12.33;9.18;;;;;;;24.43;62.77;99747.05;1662733;84;21063;-74
2021/07/12 05:16:20;;;;;;;16.05;8.95;;;;;;;24.45;62.99;99748.09;1667394;86;21007;-74
2021/07/12 05:18:47;;;;;;;13.25;9.05;;;;;;;24.52;63.11;99746.95;1667407;86;21079;-74
2021/07/12 05:21:14;;;;;;;9.53;8.63;;;;;;;24.60;62.89;99737.81;1667432;86;21591;-73
2021/07/12 05:23:41;;;;;;;12.40;11.12;;;;;;;24.61;62.76;99743.52;1676123;83;21599;-74
2021/07/12 05:26:09;;;;;;;14.93;9.93;;;;;;;24.69;63.15;99755.02;1724558;83;22308;-73
2021/07/12 05:28:37;;;;;;;22.25;12.33;;;;;;;24.78;62.85;99750.78;1724618;83;20960;-73
2021/07/12 05:31:07;;;;;;;13.53;9.93;;;;;;;24.82;62.80;99751.69;1703832;82;21541;-74
2021/07/12 05:33:33;;;;;;;15.15;13.55;;;;;;;24.86;62.75;99759.48;1668674;83;21019;-74
2021/07/12 05:35:59;;;;;;;20.00;10.15;;;;;;;24.88;62.72;99759.99;1684891;84;21144;-74
2021/07/12 05:38:26;;;;;;;17.30;9.70;;;;;;;24.91;62.98;99766.17;1639662;86;20933;-74
2021/07/12 05:40:52;;;;;;;12.15;10.15;;;;;;;24.97;63.62;99762.06;1655338;86;21087;-74
2021/07/12 05:43:18;;;;;;;11.88;10.68;;;;;;;25.06;63.26;99762.74;1649035;85;21095;-74
2021/07/12 05:45:45;;;;;;;13.18;10.35;;;;;;;25.13;62.86;99761.00;1682527;84;21009;-74
2021/07/12 05:48:11;;;;;;;11.83;10.43;;;;;;;25.19;62.87;99771.22;1655581;86;21788;-74
2021/07/12 05:50:38;;;;;;;10.72;9.53;;;;;;;25.19;62.79;99776.16;1655406;86;21526;-75
2021/07/12 05:53:04;;;;;;;13.48;11.25;;;;;;;25.19;63.18;99776.72;1653636;86;20985;-74
2021/07/12 05:55:32;;;;;;;12.18;10.72;;;;;;;25.16;63.41;99774.67;1641422;85;21108;-76
2021/07/12 05:57:58;;;;;;;11.97;10.60;;;;;;;25.17;63.61;99779.84;1654638;85;21052;-74
2021/07/12 06:00:25;;;;;;;12.15;9.50;;;;;;;25.23;63.44;99772.73;1655074;85;21990;-76
2021/07/12 06:02:52;;;;;;;11.83;10.10;;;;;;;25.29;63.32;99779.02;1652486;86;21072;-76
2021/07/12 06:05:18;;;;;;;12.03;10.82;;;;;;;25.32;63.36;99790.73;1603513;88;21071;-76
2021/07/12 06:07:47;;;;;;;13.15;11.43;;;;;;;25.33;64.02;99797.82;1645547;86;21055;-74
2021/07/12 06:10:13;;;;;;;17.20;11.93;;;;;;;25.40;63.59;99798.06;1654255;85;21502;-75
2021/07/12 06:12:40;;;;;;;12.70;11.22;;;;;;;25.42;63.45;99795.74;1669126;84;22035;-74
2021/07/12 06:15:07;;;;;;;15.15;13.03;;;;;;;25.48;63.54;99802.63;1660199;85;21060;-74
2021/07/12 06:17:33;;;;;;;18.42;12.23;;;;;;;25.53;63.80;99796.89;1672078;85;21008;-75
2021/07/12 06:20:03;;;;;;;17.10;11.80;;;;;;;25.61;63.83;99792.45;1684075;84;21062;-74
2021/07/12 06:22:29;;;;;;;17.23;11.43;;;;;;;25.69;63.86;99796.20;1634361;86;21107;-74
2021/07/12 06:24:55;;;;;;;13.32;11.90;;;;;;;25.76;63.72;99794.45;1672267;85;21848;-74
2021/07/12 06:27:22;;;;;;;26.87;12.40;;;;;;;25.75;64.15;99801.71;1652282;86;21699;-74
2021/07/12 06:29:50;;;;;;;17.00;12.35;;;;;;;25.77;64.25;99798.82;1680975;84;20953;-74
2021/07/12 06:32:16;;;;;;;19.02;12.80;;;;;;;25.75;64.52;99803.09;1700106;83;21045;-76
2021/07/12 06:34:44;;;;;;;16.55;13.15;;;;;;;25.72;64.85;99812.03;1700384;83;21220;-75
2021/07/12 06:37:11;;;;;;;17.52;12.10;;;;;;;25.68;64.91;99820.20;1680117;85;21159;-75
2021/07/12 06:39:39;;;;;;;31.25;12.88;;;;;;;25.67;65.12;99822.72;1673994;85;21063;-74
2021/07/12 06:42:05;;;;;;;19.45;13.32;;;;;;;25.65;65.40;99815.39;1643804;87;21636;-76
2021/07/12 06:44:32;;;;;;;17.65;11.63;;;;;;;25.66;65.47;99821.70;1663112;85;21092;-75
2021/07/12 06:47:00;;;;;;;25.82;13.00;;;;;;;25.70;65.74;99817.91;1672105;85;22262;-74
2021/07/12 06:49:27;;;;;;;18.02;12.68;;;;;;;25.72;65.93;99812.03;1632964;85;21188;-74
2021/07/12 06:51:53;;;;;;;21.73;12.18;;;;;;;25.69;66.19;99819.63;1679987;84;20996;-75
2021/07/12 06:54:20;;;;;;;19.27;12.60;;;;;;;25.66;66.31;99810.08;1680139;85;20941;-75
2021/07/12 06:56:47;;;;;;;21.65;12.53;;;;;;;25.67;66.39;99810.31;1680400;85;21513;-73
2021/07/12 06:59:14;;;;;;;14.23;12.70;;;;;;;25.68;66.28;99806.99;1679188;85;21573;-73
2021/07/12 07:01:42;;;;;;;26.35;12.53;;;;;;;25.63;66.48;99804.48;1654252;85;21226;-75
2021/07/12 07:04:08;;;;;;;19.62;12.78;;;;;;;25.63;66.79;99812.17;1652511;86;21008;-76
2021/07/12 07:06:34;;;;;;;17.30;14.25;;;;;;;25.63;66.94;99806.66;1652793;86;20949;-76
2021/07/12 07:09:01;;;;;;;21.48;14.58;;;;;;;25.60;67.18;99805.41;1668355;85;21537;-75
2021/07/12 07:11:30;;;;;;;17.90;12.90;;;;;;;25.62;66.93;99796.78;1642293;86;21174;-75
2021/07/12 07:13:56;;;;;;;18.62;13.40;;;;;;;25.65;67.57;99798.05;1670885;84;22265;-75
2021/07/12 07:16:22;;;;;;;18.12;12.68;;;;;;;25.66;67.63;99796.91;1668865;85;21068;-75
2021/07/12 07:18:50;;;;;;;18.98;13.38;;;;;;;25.69;67.69;99793.45;1668752;86;21064;-75
2021/07/12 07:21:18;;;;;;;18.15;12.30;;;;;;;25.73;67.80;99791.59;1668868;86;20977;-75
2021/07/12 07:23:44;;;;;;;16.62;12.80;;;;;;;25.75;67.20;99792.06;1669444;84;21105;-75
2021/07/12 07:26:11;;;;;;;18.90;11.50;;;;;;;25.82;67.24;99788.13;1648419;85;21161;-75
2021/07/12 07:28:39;;;;;;;15.43;13.08;;;;;;;25.82;67.71;99788.94;1628341;87;21036;-74
2021/07/12 07:31:05;;;;;;;22.77;14.13;;;;;;;25.79;67.91;99792.97;1602783;89;20979;-74
2021/07/12 07:33:32;;;;;;;27.82;13.35;;;;;;;25.79;67.81;99791.59;1628847;86;21040;-74
2021/07/12 07:35:59;;;;;;;19.17;11.33;;;;;;;25.81;68.10;99784.56;1601613;89;21108;-76
2021/07/12 07:38:26;;;;;;;17.25;12.47;;;;;;;25.91;67.15;99788.78;1640624;85;21973;-75
2021/07/12 07:40:53;;;;;;;18.27;13.03;;;;;;;25.93;67.10;99791.44;1683197;85;20939;-75
2021/07/12 07:43:20;;;;;;;27.35;12.45;;;;;;;25.97;66.95;99788.77;1641879;85;21036;-76
2021/07/12 07:45:46;;;;;;;16.52;12.47;;;;;;;26.04;66.46;99789.77;1617770;88;21107;-77
2021/07/12 07:48:13;;;;;;;18.27;12.47;;;;;;;26.17;65.77;99793.30;1628528;87;21084;-76
2021/07/12 07:50:42;;;;;;;13.45;12.05;;;;;;;26.28;65.68;99786.73;1628809;88;21125;-76
2021/07/12 07:53:08;;;;;;;16.52;12.78;;;;;;;26.37;65.10;99783.24;1638466;86;20992;-76
2021/07/12 07:55:34;;;;;;;14.20;12.13;;;;;;;26.53;64.62;99783.25;1645777;86;21151;-75
2021/07/12 07:58:00;;;;;;;13.50;12.07;;;;;;;26.68;63.48;99783.84;1628548;87;21088;-75
2021/07/12 08:00:28;;;;;;;11.95;10.85;;;;;;;26.78;63.38;99785.51;1628538;87;21098;-75
2021/07/12 08:02:55;;;;;;;12.65;11.55;;;;;;;26.89;62.40;99789.38;1635316;86;21171;-76
2021/07/12 08:05:21;;;;;;;14.43;11.85;;;;;;;27.03;62.71;99782.02;1683010;85;20982;-73
2021/07/12 08:07:48;;;;;;;18.75;11.40;;;;;;;27.24;62.38;99776.99;1682634;85;20985;-75
2021/07/12 08:10:16;;;;;;;19.62;12.55;;;;;;;27.42;61.08;99778.00;1682779;85;21079;-75
2021/07/12 08:12:45;;;;;;;26.10;12.70;;;;;;;27.50;60.69;99770.92;1675192;85;21524;-75
2021/07/12 08:15:13;;;;;;;15.58;11.78;;;;;;;27.59;60.35;99775.66;1629741;85;21072;-75
2021/07/12 08:17:41;;;;;;;15.45;10.90;;;;;;;27.64;59.35;99781.48;1627194;86;21141;-77
2021/07/12 08:20:11;;;;;;;17.15;11.80;;;;;;;27.71;59.13;99785.80;1629937;86;21112;-77
2021/07/12 08:22:38;;;;;;;10.75;9.68;;;;;;;27.79;59.38;99782.02;1639240;85;21046;-76
2021/07/12 08:25:05;;;;;;;11.25;10.25;;;;;;;27.90;58.08;99778.09;1650016;86;21547;-76
2021/07/12 08:27:32;;;;;;;11.60;10.60;;;;;;;27.90;58.88;99771.98;1653750;86;21181;-74
2021/07/12 08:30:00;;;;;;;14.30;10.53;;;;;;;27.94;58.75;99765.94;1691488;84;21007;-79
2021/07/12 08:32:27;;;;;;;10.80;9.40;;;;;;;28.00;58.58;99769.22;1697427;83;21035;-78
2021/07/12 08:34:53;;;;;;;14.45;11.25;;;;;;;28.09;58.63;99771.98;1722772;83;21032;-76
2021/07/12 08:37:21;;;;;;;11.65;10.45;;;;;;;28.10;58.38;99776.94;1722479;83;21099;-75
2021/07/12 08:39:47;;;;;;;11.30;10.20;;;;;;;28.06;58.99;99776.84;1722684;83;21292;-77
2021/07/12 08:42:14;;;;;;;10.48;9.63;;;;;;;28.07;59.02;99768.77;1700291;83;21069;-76
2021/07/12 08:44:43;;;;;;;9.83;8.85;;;;;;;28.12;59.00;99770.47;1700024;83;21239;-76
2021/07/12 08:47:09;;;;;;;11.35;9.90;;;;;;;28.22;57.66;99767.70;1694550;83;21118;-75
2021/07/12 08:49:35;;;;;;;11.12;9.65;;;;;;;28.26;56.95;99767.17;1690037;83;21026;-76
2021/07/12 08:52:05;;;;;;;10.48;9.25;;;;;;;28.25;56.76;99772.52;1666136;84;21582;-73
2021/07/12 08:54:32;;;;;;;9.33;8.53;;;;;;;28.23;56.89;99769.30;1666002;86;21036;-73
2021/07/12 08:56:59;;;;;;;9.50;8.60;;;;;;;28.24;56.16;99766.18;1665712;86;21644;-75
2021/07/12 08:59:35;;;;;;;12.63;9.33;;;;;;;28.24;56.46;99761.23;1674028;83;21068;-75
2021/07/12 09:02:11;;;;;;;15.72;9.95;;;;;;;28.29;56.59;99758.16;1711083;83;21007;-75
2021/07/12 09:04:40;;;;;;;12.20;9.63;;;;;;;28.39;55.90;99752.84;1692537;84;21138;-76
2021/07/12 09:07:08;;;;;;;12.98;9.63;;;;;;;28.47;55.73;99757.91;1698848;84;22225;-74
2021/07/12 09:09:35;;;;;;;10.65;9.65;;;;;;;28.55;55.54;99758.23;1704649;83;21069;-74
2021/07/12 09:12:17;;;;;;;9.05;8.15;;;;;;;28.64;55.65;99761.56;1693702;84;21023;-74
2021/07/12 09:15:05;;;;;;;8.93;8.03;;;;;;;28.76;54.50;99769.72;1668184;84;21045;-74
2021/07/12 09:17:35;;;;;;;9.25;8.35;;;;;;;28.84;53.82;99774.20;1678560;84;21076;-77
2021/07/12 09:20:05;;;;;;;9.83;8.88;;;;;;;28.93;54.23;99778.91;1679944;84;20999;-74
2021/07/12 09:22:34;;;;;;;9.25;8.55;;;;;;;28.88;53.98;99781.18;1667554;86;21011;-75
2021/07/12 09:25:02;;;;;;;9.55;8.68;;;;;;;28.89;54.45;99783.59;1667112;86;20999;-75
2021/07/12 09:27:31;;;;;;;11.10;10.18;;;;;;;28.95;54.79;99792.39;1667551;86;21014;-75
2021/07/12 09:30:09;;;;;;;10.30;9.38;;;;;;;29.06;53.85;99798.92;1689344;83;21593;-74
2021/07/12 09:32:37;;;;;;;8.80;7.87;;;;;;;29.17;53.56;99797.68;1688871;83;21039;-74
2021/07/12 09:35:10;;;;;;;13.65;8.23;;;;;;;29.26;51.94;99802.37;1712714;82;20984;-76
2021/07/12 09:37:39;;;;;;;16.37;8.43;;;;;;;29.26;50.80;99802.37;1702712;83;21100;-74
2021/07/12 09:40:14;;;;;;;10.95;8.85;;;;;;;29.24;49.62;99807.50;1693859;84;21491;-75
2021/07/12 09:42:49;;;;;;;8.35;7.15;;;;;;;29.27;49.12;99808.94;1695269;83;21095;-74
2021/07/12 09:45:18;;;;;;;7.70;7.00;;;;;;;29.31;49.68;99813.17;1694781;83;21004;-78
2021/07/12 09:47:46;;;;;;;9.65;8.45;;;;;;;29.35;50.31;99820.36;1713432;83;21018;-76
2021/07/12 09:50:18;;;;;;;13.15;8.25;;;;;;;29.27;50.29;99817.83;1696208;84;20972;-76
2021/07/12 09:52:49;;;;;;;;;;;;;;;29.11;50.67;99811.66;1723454;83;20996;-72
2021/07/12 09:55:30;;;;;;;7.40;6.42;;;;;;;28.91;51.47;99810.34;1726187;82;22078;-76
2021/07/12 09:58:18;;;;;;;11.63;9.60;;;;;;;28.80;52.08;99795.50;1726542;83;20990;-74
2021/07/12 10:00:54;;;;;;;12.78;8.85;;;;;;;28.70;52.12;99793.89;1724887;83;21095;-75
2021/07/12 10:03:22;;;;;;;9.90;8.03;;;;;;;28.68;52.00;99802.56;1697057;83;21556;-73
2021/07/12 10:05:49;;;;;;;12.50;9.43;;;;;;;28.67;52.38;99808.48;1710314;83;20944;-72
2021/07/12 10:08:16;;;;;;;11.25;9.20;;;;;;;28.59;52.84;99805.56;1695690;84;21956;-73
2021/07/12 10:10:44;;;;;;;9.65;8.50;;;;;;;28.56;53.25;99806.31;1683498;83;20971;-72
2021/07/12 10:13:16;;;;;;;8.63;7.87;;;;;;;28.54;53.71;99806.45;1707737;83;20948;-76
2021/07/12 10:15:42;;;;;;;9.38;7.30;;;;;;;28.53;53.82;99807.64;1700007;83;21099;-73
2021/07/12 10:18:09;;;;;;;11.78;8.35;;;;;;;28.54;53.98;99811.98;1709668;83;21071;-71
2021/07/12 10:20:36;;;;;;;9.45;8.65;;;;;;;28.54;54.00;99826.63;1702585;83;21079;-73
2021/07/12 10:23:06;;;;;;;11.05;8.30;;;;;;;28.51;53.89;99823.22;1667558;84;21100;-72
2021/07/12 10:25:33;;;;;;;8.90;7.85;;;;;;;28.47;53.96;99823.73;1668367;85;20994;-72
2021/07/12 10:28:08;;;;;;;11.03;10.03;;;;;;;28.44;54.12;99823.67;1669525;86;21061;-74
2021/07/12 10:30:48;;;;;;;13.70;8.20;;;;;;;28.39;54.60;99822.59;1651439;85;21033;-71
2021/07/12 10:33:19;;;;;;;11.08;7.87;;;;;;;28.31;55.71;99825.78;1674605;83;21310;-79
2021/07/12 10:35:52;;;;;;;10.32;8.28;;;;;;;28.24;56.03;99810.44;1703653;83;21091;-71
2021/07/12 10:38:39;;;;;;;13.20;10.15;;;;;;;28.10;57.27;99811.51;1715140;83;21005;-77
2021/07/12 10:41:16;;;;;;;9.00;7.87;;;;;;;27.97;58.82;99810.83;1708505;83;21115;-70
2021/07/12 10:43:50;;;;;;;18.55;10.05;;;;;;;27.85;59.56;99813.74;1707254;83;21039;-76
2021/07/12 10:46:32;;;;;;;11.70;10.40;;;;;;;27.66;60.22;99803.47;1703819;82;21119;-74
2021/07/12 10:49:00;;;;;;;14.83;9.85;;;;;;;27.53;60.60;99803.34;1684229;84;21495;-73
2021/07/12 10:51:37;;;;;;;14.28;9.75;;;;;;;27.44;61.60;99797.77;1663430;84;21046;-73
2021/07/12 10:54:12;;;;;;;11.48;8.90;;;;;;;27.33;62.55;99794.20;1670431;84;21611;-74
2021/07/12 10:57:00;;;;;;;10.28;8.68;;;;;;;27.23;63.21;99793.94;1658285;85;21003;-73
2021/07/12 10:59:38;;;;;;;10.65;8.50;;;;;;;27.07;63.88;99795.91;1723719;83;21097;-73
2021/07/12 11:02:19;;;;;;;16.00;9.35;;;;;;;26.95;64.55;99798.20;1723904;83;21114;-73
2021/07/12 11:05:01;;;;;;;12.03;10.63;;;;;;;26.73;65.35;99788.53;1722828;83;21684;-74
2021/07/12 11:07:42;;;;;;;18.10;10.53;;;;;;;26.54;66.94;99780.14;1724017;83;21057;-73
2021/07/12 11:10:31;;;;;;;15.55;10.98;;;;;;;26.43;67.29;99768.81;1695856;83;21133;-74
2021/07/12 11:13:00;;;;;;;9.75;8.78;;;;;;;26.39;68.09;99768.50;1681557;83;20948;-74
2021/07/12 11:15:40;;;;;;;11.43;10.38;;;;;;;26.38;68.04;99757.23;1690257;84;39558;-76
2021/07/12 11:18:25;;;;;;;11.50;10.03;;;;;;;26.30;67.06;99753.50;1633483;87;21072;-76
2021/07/12 11:21:00;;;;;;;12.33;11.15;;;;;;;26.24;66.84;99744.45;1653609;85;21094;-75
2021/07/12 11:23:52;;;;;;;11.75;9.90;;;;;;;26.24;66.86;99745.25;1672420;84;21169;-74
2021/07/12 11:26:27;;;;;;;10.90;9.78;;;;;;;26.19;66.62;99737.20;1673745;85;21525;-71
2021/07/12 11:28:59;;;;;;;17.50;11.22;;;;;;;26.02;69.18;99736.16;1673729;85;20979;-72
2021/07/12 11:31:58;;;;;;;18.70;10.48;;;;;;;25.81;70.95;99724.52;1673736;85;21035;-73
2021/07/12 11:34:42;;;;;;;13.85;9.73;;;;;;;25.63;71.40;99724.59;1674245;84;21229;-70
2021/07/12 11:37:14;;;;;;;11.43;9.43;;;;;;;25.53;72.81;99718.38;1673176;85;21056;-71
2021/07/12 11:39:58;;;;;;;12.18;9.53;;;;;;;25.50;72.18;99715.53;1672583;85;22204;-71
2021/07/12 11:42:35;;;;;;;11.22;10.18;;;;;;;25.44;73.11;99711.41;1672859;85;21038;-70